createdAt,value
2018-04-10T05:07:39.989Z,95283.31
2018-04-10T05:10:08.599Z,95280.38
2018-04-10T05:12:37.257Z,95281.34
2018-04-10T05:15:06.107Z,95288.02
2018-04-10T05:17:34.555Z,95277.72
2018-04-10T05:20:03.000Z,95289.83
2018-04-10T05:22:31.396Z,95279.27
2018-04-10T05:25:00.105Z,95278.61
2018-04-10T05:27:28.998Z,95285.08
2018-04-10T05:29:57.635Z,95275.52
2018-04-10T05:32:26.132Z,95277.98
2018-04-10T05:34:54.936Z,95280.91
2018-04-10T05:37:22.963Z,95275.57
2018-04-10T05:39:51.044Z,95278.09
2018-04-10T05:42:19.034Z,95280.75
2018-04-10T05:44:47.059Z,95278.02
2018-04-10T05:47:15.026Z,95276.08
2018-04-10T05:49:43.045Z,95274.92
2018-04-10T05:52:11.274Z,95273.84
2018-04-10T05:54:39.750Z,95266.13
2018-04-10T05:57:08.485Z,95272.31
2018-04-10T05:59:37.157Z,95270.09
2018-04-10T06:02:05.737Z,95270.77
2018-04-10T06:04:34.237Z,95274.34
2018-04-10T06:07:02.905Z,95269.18
2018-04-10T06:09:31.763Z,95268.44
2018-04-10T06:12:00.519Z,95258.98
2018-04-10T06:14:29.189Z,95257.65
2018-04-10T06:16:57.408Z,95258.93
2018-04-10T06:19:25.470Z,95264.19
2018-04-10T06:21:53.496Z,95268.06
2018-04-10T06:24:21.503Z,95263.85
2018-04-10T06:26:49.621Z,95261.40
2018-04-10T06:29:17.579Z,95265.95
2018-04-10T06:31:45.523Z,95266.77
2018-04-10T06:34:13.595Z,95254.55
2018-04-10T06:36:41.706Z,95256.36
2018-04-10T06:39:09.969Z,95254.38
2018-04-10T06:41:37.977Z,95254.61
2018-04-10T06:44:05.929Z,95256.42
2018-04-10T06:46:33.950Z,95255.55
2018-04-10T06:49:01.992Z,95252.28
2018-04-10T06:51:29.893Z,95238.08
2018-04-10T06:53:57.948Z,95243.98
2018-04-10T06:56:25.960Z,95236.08
2018-04-10T06:58:53.929Z,95237.67
2018-04-10T07:01:21.984Z,95233.03
2018-04-10T07:03:50.003Z,95237.22
2018-04-10T07:09:16.055Z,95230.44
2018-04-10T07:11:44.559Z,95222.08
2018-04-10T07:14:12.839Z,95223.00
2018-04-10T07:16:40.782Z,95230.58
2018-04-10T07:19:08.771Z,95226.34
2018-04-10T07:21:36.708Z,95227.59
2018-04-10T07:24:04.735Z,95216.48
2018-04-10T07:26:32.775Z,95213.53
2018-04-10T07:29:00.806Z,95208.95
2018-04-10T07:31:28.920Z,95210.05
2018-04-10T07:33:56.946Z,95225.16
2018-04-10T07:36:24.888Z,95220.80
2018-04-10T07:38:53.003Z,95217.22
2018-04-10T07:41:21.562Z,95215.76
2018-04-10T07:43:49.576Z,95206.58
2018-04-10T07:46:17.584Z,95196.84
2018-04-10T07:48:45.576Z,95198.87
2018-04-10T07:51:13.545Z,95195.03
2018-04-10T07:53:41.534Z,95201.52
2018-04-10T07:56:09.502Z,95194.98
2018-04-10T07:58:37.533Z,95188.01
2018-04-10T08:01:05.581Z,95183.58
2018-04-10T08:03:33.566Z,95179.20
2018-04-10T08:06:01.551Z,95176.30
2018-04-10T08:08:29.623Z,95176.03
2018-04-10T08:10:57.632Z,95176.39
2018-04-10T08:13:26.429Z,95163.56
2018-04-10T08:15:54.381Z,95156.09
2018-04-10T08:18:22.373Z,95157.44
2018-04-10T08:20:50.351Z,95159.07
2018-04-10T08:23:18.402Z,95160.23
2018-04-10T08:25:46.424Z,95168.63
2018-04-10T08:28:14.446Z,95157.58
2018-04-10T08:30:42.436Z,95150.27
2018-04-10T08:33:10.432Z,95147.31
2018-04-10T08:35:38.446Z,95142.31
2018-04-10T08:38:06.433Z,95152.45
2018-04-10T08:40:34.409Z,95146.52
2018-04-10T08:43:02.528Z,95145.27
2018-04-10T08:45:30.576Z,95137.85
2018-04-10T08:47:58.582Z,95136.22
2018-04-10T08:50:26.571Z,95135.68
2018-04-10T08:52:54.525Z,95126.52
2018-04-10T08:55:22.516Z,95128.09
2018-04-10T08:57:50.519Z,95119.14
2018-04-10T09:00:18.537Z,95112.98
2018-04-10T09:02:46.591Z,95109.83
2018-04-10T09:05:14.584Z,95116.68
2018-04-10T09:07:42.601Z,95109.95
2018-04-10T09:10:10.626Z,95111.20
2018-04-10T09:12:38.616Z,95108.86
2018-04-10T09:15:07.235Z,95101.66
2018-04-10T09:17:35.176Z,95097.56
2018-04-10T09:20:03.171Z,95100.83
2018-04-10T09:22:31.224Z,95101.91
2018-04-10T09:24:59.259Z,95093.55
2018-04-10T09:27:27.199Z,95092.42
2018-04-10T09:29:55.246Z,95089.83
2018-04-10T09:32:23.250Z,95092.97
2018-04-10T09:34:51.242Z,95086.50
2018-04-10T09:37:19.349Z,95090.14
2018-04-10T09:39:47.396Z,95085.52
2018-04-10T09:42:15.479Z,95080.59
2018-04-10T09:44:43.545Z,95092.23
2018-04-10T09:47:11.497Z,95088.20
2018-04-10T09:49:39.520Z,95087.63
2018-04-10T09:52:07.496Z,95091.58
2018-04-10T09:54:35.516Z,95089.50
2018-04-10T09:57:03.472Z,95085.23
2018-04-10T09:59:31.440Z,95074.23
2018-04-10T10:01:59.444Z,95062.12
2018-04-10T10:04:27.528Z,95052.89
2018-04-10T10:06:55.569Z,95045.73
2018-04-10T10:09:23.589Z,95037.91
2018-04-10T10:11:51.689Z,94981.38
2018-04-10T10:14:19.585Z,95044.98
2018-04-10T10:16:48.264Z,95039.95
2018-04-10T10:19:16.217Z,95031.16
2018-04-10T10:21:44.265Z,95029.08
2018-04-10T10:24:12.293Z,95024.33
2018-04-10T10:26:40.306Z,95030.31
2018-04-10T10:29:08.329Z,95028.99
2018-04-10T10:31:36.342Z,95023.36
2018-04-10T10:34:04.322Z,95007.56
2018-04-10T10:36:32.282Z,95008.74
2018-04-10T10:39:00.345Z,95001.78
2018-04-10T10:41:28.470Z,95003.42
2018-04-10T10:43:56.453Z,94993.98
2018-04-10T10:46:24.525Z,94992.67
2018-04-10T10:48:52.557Z,94991.66
2018-04-10T10:51:20.597Z,94974.26
2018-04-10T10:53:48.711Z,94976.95
2018-04-10T10:56:16.754Z,94975.27
2018-04-10T10:58:44.732Z,94967.45
2018-04-10T11:01:12.761Z,94962.55
2018-04-10T11:03:40.821Z,94970.25
2018-04-10T11:06:08.815Z,94965.27
2018-04-10T11:08:36.852Z,94955.97
2018-04-10T11:11:04.786Z,94948.50
2018-04-10T11:13:32.784Z,94945.07
2018-04-10T11:16:00.807Z,94938.50
2018-04-10T11:18:29.318Z,94937.48
2018-04-10T11:20:57.353Z,94925.48
2018-04-10T11:23:25.378Z,94926.50
2018-04-10T11:25:53.396Z,94935.55
2018-04-10T11:28:21.419Z,94929.71
2018-04-10T11:30:49.372Z,94926.53
2018-04-10T11:33:17.367Z,94921.16
2018-04-10T11:35:45.374Z,94930.86
2018-04-10T11:38:13.403Z,94925.46
2018-04-10T11:40:41.415Z,94888.64
2018-04-10T11:43:09.483Z,94931.30
2018-04-10T11:45:37.509Z,94914.36
2018-04-10T11:48:05.550Z,94912.04
2018-04-10T11:50:33.675Z,94909.53
2018-04-10T11:53:01.712Z,94884.16
2018-04-10T11:55:29.695Z,94886.98
2018-04-10T11:57:57.704Z,94890.91
2018-04-10T12:00:25.758Z,94883.68
2018-04-10T12:02:53.777Z,94875.24
2018-04-10T12:05:21.814Z,94869.78
2018-04-10T12:07:49.821Z,94865.04
2018-04-10T12:10:17.856Z,94864.44
2018-04-10T12:12:45.881Z,94859.87
2018-04-10T12:15:13.851Z,94858.73
2018-04-10T12:17:41.874Z,94853.06
2018-04-10T12:20:10.389Z,94852.11
2018-04-10T12:22:38.452Z,94841.97
2018-04-10T12:25:06.538Z,94845.22
2018-04-10T12:27:34.569Z,94849.01
2018-04-10T12:30:02.558Z,94848.16
2018-04-10T12:32:30.577Z,94848.85
2018-04-10T12:34:58.655Z,94845.34
2018-04-10T12:37:26.669Z,94840.97
2018-04-10T12:39:54.605Z,94828.52
2018-04-10T12:42:22.694Z,94828.48
2018-04-10T12:44:50.729Z,94832.51
2018-04-10T12:47:18.692Z,94830.34
2018-04-10T12:49:46.706Z,94824.58
2018-04-10T12:52:14.758Z,94814.75
2018-04-10T12:54:42.782Z,94816.85
2018-04-10T12:57:10.769Z,94813.55
2018-04-10T12:59:38.727Z,94809.23
2018-04-10T13:02:06.885Z,94806.30
2018-04-10T13:04:34.988Z,94805.64
2018-04-10T13:07:02.965Z,94802.30
2018-04-10T13:09:30.970Z,94809.05
2018-04-10T13:11:58.973Z,94814.22
2018-04-10T13:14:26.966Z,94813.91
2018-04-10T13:16:54.965Z,94823.31
2018-04-10T13:19:22.947Z,94801.64
2018-04-10T13:21:51.301Z,94807.30
2018-04-10T13:24:19.375Z,94804.67
2018-04-10T13:26:47.368Z,94805.73
2018-04-10T13:29:15.403Z,94794.83
2018-04-10T13:31:43.471Z,94792.07
2018-04-10T13:34:11.464Z,94794.84
2018-04-10T13:36:39.456Z,94802.26
2018-04-10T13:39:07.462Z,94793.27
2018-04-10T13:41:35.509Z,94801.75
2018-04-10T13:44:03.479Z,94803.27
2018-04-10T13:46:31.472Z,94800.97
2018-04-10T13:48:59.495Z,94813.39
2018-04-10T13:51:27.540Z,94810.13
2018-04-10T13:53:55.526Z,94804.14
2018-04-10T13:56:23.511Z,94815.27
2018-04-10T13:58:51.591Z,94812.27
2018-04-10T14:01:19.636Z,94795.61
2018-04-10T14:03:47.813Z,94803.92
2018-04-10T14:06:15.783Z,94809.87
2018-04-10T14:08:43.875Z,94810.52
2018-04-10T14:11:11.910Z,94788.92
2018-04-10T14:13:39.891Z,94805.80
2018-04-10T14:16:07.923Z,94809.30
2018-04-10T14:18:35.902Z,94807.17
2018-04-10T14:21:03.923Z,94808.21
2018-04-10T14:23:32.486Z,94808.52
2018-04-10T14:26:00.589Z,94802.61
2018-04-10T14:28:28.590Z,94796.85
2018-04-10T14:30:56.673Z,94796.64
2018-04-10T14:33:24.730Z,94797.77
2018-04-10T14:35:52.775Z,94793.63
2018-04-10T14:38:20.794Z,94806.30
2018-04-10T14:40:48.745Z,94806.06
2018-04-10T14:43:16.772Z,94807.62
2018-04-10T14:45:44.779Z,94799.53
2018-04-10T14:48:12.753Z,94800.90
2018-04-10T14:50:40.807Z,94803.39
2018-04-10T14:53:09.011Z,94789.81
2018-04-10T14:55:37.155Z,94793.66
2018-04-10T14:58:05.264Z,94794.23
2018-04-10T15:00:33.325Z,94795.80
2018-04-10T15:03:01.500Z,94795.08
2018-04-10T15:05:29.490Z,94804.77
2018-04-10T15:07:57.566Z,94802.55
2018-04-10T15:10:25.659Z,94799.28
2018-04-10T15:12:53.710Z,94804.72
2018-04-10T15:15:21.802Z,94804.08
2018-04-10T15:17:49.808Z,94806.80
2018-04-10T15:20:17.815Z,94805.61
2018-04-10T15:22:45.893Z,94813.38
2018-04-10T15:25:14.275Z,94792.38
2018-04-10T15:27:42.345Z,94800.47
2018-04-10T15:30:10.365Z,94751.50
2018-04-10T15:32:38.440Z,94803.00
2018-04-10T15:35:06.620Z,94813.84
2018-04-10T15:37:34.649Z,94818.40
2018-04-10T15:40:02.708Z,94813.98
2018-04-10T15:42:30.702Z,94811.81
2018-04-10T15:44:58.686Z,94810.05
2018-04-10T15:47:26.662Z,94804.47
2018-04-10T15:49:54.724Z,94803.59
2018-04-10T15:52:22.724Z,94804.94
2018-04-10T15:54:50.736Z,94800.83
2018-04-10T15:57:18.827Z,94800.47
2018-04-10T15:59:46.901Z,94799.14
2018-04-10T16:02:15.223Z,94789.33
2018-04-10T16:04:43.242Z,94792.98
2018-04-10T16:07:11.330Z,94779.55
2018-04-10T16:09:39.293Z,94779.25
2018-04-10T16:12:07.377Z,94780.48
2018-04-10T16:14:35.408Z,94784.41
2018-04-10T16:17:03.435Z,94701.07
2018-04-10T16:19:31.541Z,94793.55
2018-04-10T16:21:59.578Z,94789.98
2018-04-10T16:24:27.715Z,94787.97
2018-04-10T16:26:56.144Z,94786.55
2018-04-10T16:29:24.194Z,94794.48
2018-04-10T16:31:52.178Z,94795.05
2018-04-10T16:34:20.207Z,94794.52
2018-04-10T16:36:48.246Z,94792.77
2018-04-10T16:39:16.332Z,94798.92
2018-04-10T16:41:44.388Z,94807.19
2018-04-10T16:44:12.457Z,94817.95
2018-04-10T16:46:40.530Z,94825.20
2018-04-10T16:49:08.586Z,94830.69
2018-04-10T16:51:36.582Z,94833.27
2018-04-10T16:54:04.656Z,94841.81
2018-04-10T16:56:32.723Z,94847.72
2018-04-10T16:59:00.816Z,94853.43
2018-04-10T17:01:28.849Z,94860.21
2018-04-10T17:03:56.929Z,94854.95
2018-04-10T17:06:24.917Z,94860.16
2018-04-10T17:08:52.970Z,94864.45
2018-04-10T17:11:21.007Z,94866.30
2018-04-10T17:13:49.034Z,94861.31
2018-04-10T17:16:17.098Z,94862.81
2018-04-10T17:18:45.109Z,94856.93
2018-04-10T17:21:13.171Z,94858.51
2018-04-10T17:23:41.290Z,94862.83
2018-04-10T17:26:09.347Z,94858.88
2018-04-10T17:28:37.676Z,94862.25
2018-04-10T17:31:05.726Z,94871.98
2018-04-10T17:33:33.752Z,94874.25
2018-04-10T17:36:01.829Z,94878.52
2018-04-10T17:38:29.838Z,94875.30
2018-04-10T17:40:57.868Z,94871.59
2018-04-10T17:43:25.986Z,94871.70
2018-04-10T17:45:54.057Z,94873.50
2018-04-10T17:48:22.068Z,94871.77
2018-04-10T17:50:50.135Z,94869.84
2018-04-10T17:53:18.251Z,94878.56
2018-04-10T17:55:46.303Z,94882.61
2018-04-10T17:58:14.346Z,94889.42
2018-04-10T18:00:42.327Z,94904.23
2018-04-10T18:03:10.393Z,94914.95
2018-04-10T18:05:38.480Z,94908.27
2018-04-10T18:08:06.551Z,94914.81
2018-04-10T18:10:34.566Z,94914.39
2018-04-10T18:13:02.531Z,94909.25
2018-04-10T18:15:30.545Z,94906.75
2018-04-10T18:17:58.542Z,94905.17
2018-04-10T18:20:26.596Z,94917.95
2018-04-10T18:22:54.580Z,94921.64
2018-04-10T18:25:22.620Z,94910.04
2018-04-10T18:27:50.704Z,94904.09
2018-04-10T18:30:19.065Z,94905.84
2018-04-10T18:32:47.090Z,94905.05
2018-04-10T18:35:15.021Z,94912.06
2018-04-10T18:37:43.090Z,94915.89
2018-04-10T18:40:11.093Z,94920.80
2018-04-10T18:42:39.160Z,94917.93
2018-04-10T18:45:07.102Z,94920.27
2018-04-10T18:47:35.121Z,94921.96
2018-04-10T18:50:03.148Z,94927.45
2018-04-10T18:52:31.110Z,94935.73
2018-04-10T18:54:59.071Z,94935.23
2018-04-10T18:57:27.073Z,94927.00
2018-04-10T18:59:55.205Z,94924.00
2018-04-10T19:02:23.289Z,94922.19
2018-04-10T19:04:51.307Z,94939.50
2018-04-10T19:07:19.323Z,94954.06
2018-04-10T19:09:47.394Z,94967.70
2018-04-10T19:12:15.413Z,94958.38
2018-04-10T19:14:43.473Z,94965.99
2018-04-10T19:17:11.471Z,94954.23
2018-04-10T19:19:39.555Z,94943.70
2018-04-10T19:22:07.671Z,94936.03
2018-04-10T19:24:35.655Z,94864.63
2018-04-10T19:27:03.730Z,94937.19
2018-04-10T19:29:31.817Z,94942.45
2018-04-10T19:32:00.075Z,94943.38
2018-04-10T19:34:28.151Z,94942.06
2018-04-10T19:36:56.180Z,94935.25
2018-04-10T19:39:24.208Z,94942.02
2018-04-10T19:41:52.258Z,94934.56
2018-04-10T19:44:20.240Z,94942.52
2018-04-10T19:46:48.270Z,94958.06
2018-04-10T19:49:16.331Z,94967.94
2018-04-10T19:51:44.417Z,94966.67
2018-04-10T19:54:12.434Z,94969.51
2018-04-10T19:56:40.480Z,94972.39
2018-04-10T19:59:08.509Z,94974.89
2018-04-10T20:01:36.501Z,94971.20
2018-04-10T20:04:04.552Z,94966.28
2018-04-10T20:06:32.621Z,94971.54
2018-04-10T20:09:00.657Z,94975.69
2018-04-10T20:11:28.728Z,94973.93
2018-04-10T20:13:56.729Z,94978.39
2018-04-10T20:16:24.862Z,94984.16
2018-04-10T20:18:52.858Z,94983.98
2018-04-10T20:21:20.959Z,94998.07
2018-04-10T20:23:49.058Z,95009.81
2018-04-10T20:26:17.148Z,95016.88
2018-04-10T20:28:45.111Z,95013.91
2018-04-10T20:31:13.136Z,95024.00
2018-04-10T20:33:41.452Z,95024.63
2018-04-10T20:36:09.463Z,95026.05
2018-04-10T20:38:37.527Z,95031.94
2018-04-10T20:41:05.527Z,95036.12
2018-04-10T20:43:33.547Z,95039.10
2018-04-10T20:46:01.531Z,95041.48
2018-04-10T20:48:29.593Z,95028.48
2018-04-10T20:50:57.592Z,95033.86
2018-04-10T20:53:25.585Z,95043.34
2018-04-10T20:55:53.573Z,95039.19
2018-04-10T20:58:21.607Z,95034.45
2018-04-10T21:00:49.760Z,95026.88
2018-04-10T21:03:17.804Z,95035.26
2018-04-10T21:05:45.787Z,95037.48
2018-04-10T21:08:13.755Z,95035.59
2018-04-10T21:10:41.721Z,95035.97
2018-04-10T21:13:09.751Z,95038.42
2018-04-10T21:15:37.732Z,95031.55
2018-04-10T21:18:05.746Z,95029.86
2018-04-10T21:20:33.758Z,95036.27
2018-04-10T21:23:01.722Z,95041.88
2018-04-10T21:25:29.693Z,95034.61
2018-04-10T21:27:57.701Z,95040.11
2018-04-10T21:30:25.705Z,95030.22
2018-04-10T21:32:53.721Z,95030.45
2018-04-10T21:35:22.140Z,95032.03
2018-04-10T21:37:50.117Z,95030.93
2018-04-10T21:40:18.095Z,95030.22
2018-04-10T21:42:51.784Z,95031.03
2018-04-10T21:45:19.790Z,95019.65
2018-04-10T21:47:47.856Z,95016.81
2018-04-10T21:50:15.810Z,95018.91
2018-04-10T21:52:43.827Z,95012.32
2018-04-10T21:55:11.922Z,95016.97
2018-04-10T21:57:40.073Z,95018.22
2018-04-10T22:00:08.077Z,95017.58
2018-04-10T22:02:36.101Z,95029.20
2018-04-10T22:05:04.166Z,95020.77
2018-04-10T22:07:32.159Z,95011.88
2018-04-10T22:10:00.191Z,95004.93
2018-04-10T22:12:28.214Z,95006.16
2018-04-10T22:14:56.194Z,95015.31
2018-04-10T22:17:24.172Z,95016.03
2018-04-10T22:19:52.170Z,95011.23
2018-04-10T22:22:20.202Z,95009.98
2018-04-10T22:24:48.245Z,94999.19
2018-04-10T22:27:16.282Z,95004.08
2018-04-10T22:29:44.265Z,95003.14
2018-04-10T22:32:12.218Z,95006.42
2018-04-10T22:34:40.271Z,95013.52
2018-04-10T22:37:08.642Z,95012.25
2018-04-10T22:39:36.656Z,94998.86
2018-04-10T22:42:04.703Z,95001.39
2018-04-10T22:44:32.774Z,95002.95
2018-04-10T22:47:00.801Z,94991.41
2018-04-10T22:49:28.870Z,94993.59
2018-04-10T22:51:56.906Z,94998.19
2018-04-10T22:54:25.926Z,94996.05
2018-04-10T22:56:53.985Z,94982.05
2018-04-10T22:59:21.947Z,94979.59
2018-04-10T23:01:49.955Z,94975.83
2018-04-10T23:04:17.974Z,94981.34
2018-04-10T23:06:45.994Z,94983.53
2018-04-10T23:09:14.027Z,94991.42
2018-04-10T23:11:42.115Z,94983.62
2018-04-10T23:14:10.150Z,94983.30
2018-04-10T23:16:38.114Z,94985.55
2018-04-10T23:19:06.123Z,94979.92
2018-04-10T23:21:34.120Z,94980.72
2018-04-10T23:24:02.183Z,94987.65
2018-04-10T23:26:30.202Z,94984.01
2018-04-10T23:28:58.138Z,94985.27
2018-04-10T23:31:26.143Z,94971.52
2018-04-10T23:33:54.262Z,94970.39
2018-04-10T23:36:22.268Z,94970.39
2018-04-10T23:38:50.945Z,94967.74
2018-04-10T23:41:18.997Z,94968.53
2018-04-10T23:43:47.123Z,94971.99
2018-04-10T23:46:15.173Z,94960.44
2018-04-10T23:48:43.205Z,94950.14
2018-04-10T23:51:11.241Z,94932.94
2018-04-10T23:53:39.277Z,94934.32
2018-04-10T23:56:07.291Z,94934.13
2018-04-10T23:58:35.352Z,94930.30
